sensor_id;sensor_type;location;lat;lon;timestamp;temperature;humidity
8475;DHT22;4274;52.012;8.448;2023-07-08T00:01:09;21.10;92.00
8475;DHT22;4274;52.012;8.448;2023-07-08T00:03:36;21.00;92.20
8475;DHT22;4274;52.012;8.448;2023-07-08T00:06:02;20.90;92.20
8475;DHT22;4274;52.012;8.448;2023-07-08T00:08:27;20.80;92.20
8475;DHT22;4274;52.012;8.448;2023-07-08T00:10:53;20.80;92.70
8475;DHT22;4274;52.012;8.448;2023-07-08T00:13:19;20.80;92.40
8475;DHT22;4274;52.012;8.448;2023-07-08T00:15:45;20.80;92.70
8475;DHT22;4274;52.012;8.448;2023-07-08T00:18:17;20.70;92.70
8475;DHT22;4274;52.012;8.448;2023-07-08T00:20:49;20.60;92.80
8475;DHT22;4274;52.012;8.448;2023-07-08T00:23:15;20.60;93.00
8475;DHT22;4274;52.012;8.448;2023-07-08T00:25:41;20.50;93.20
8475;DHT22;4274;52.012;8.448;2023-07-08T00:28:16;20.40;93.50
8475;DHT22;4274;52.012;8.448;2023-07-08T00:30:42;20.30;93.40
8475;DHT22;4274;52.012;8.448;2023-07-08T00:33:08;20.20;94.10
8475;DHT22;4274;52.012;8.448;2023-07-08T00:35:42;20.10;94.40
8475;DHT22;4274;52.012;8.448;2023-07-08T00:43:34;19.60;95.50
8475;DHT22;4274;52.012;8.448;2023-07-08T00:48:51;19.30;96.30
8475;DHT22;4274;52.012;8.448;2023-07-08T00:51:19;19.20;96.70
8475;DHT22;4274;52.012;8.448;2023-07-08T00:53:45;19.10;97.00
8475;DHT22;4274;52.012;8.448;2023-07-08T00:58:49;18.90;97.60
8475;DHT22;4274;52.012;8.448;2023-07-08T01:01:16;18.80;97.90
8475;DHT22;4274;52.012;8.448;2023-07-08T01:03:53;18.80;98.10
8475;DHT22;4274;52.012;8.448;2023-07-08T01:06:21;18.80;98.30
8475;DHT22;4274;52.012;8.448;2023-07-08T01:08:50;18.70;98.60
8475;DHT22;4274;52.012;8.448;2023-07-08T01:11:18;18.70;98.90
8475;DHT22;4274;52.012;8.448;2023-07-08T01:13:48;18.70;99.10
8475;DHT22;4274;52.012;8.448;2023-07-08T01:16:14;18.60;99.30
8475;DHT22;4274;52.012;8.448;2023-07-08T01:18:40;18.60;99.50
8475;DHT22;4274;52.012;8.448;2023-07-08T01:21:36;18.60;99.70
8475;DHT22;4274;52.012;8.448;2023-07-08T01:24:05;18.60;99.80
8475;DHT22;4274;52.012;8.448;2023-07-08T01:26:33;18.60;99.90
8475;DHT22;4274;52.012;8.448;2023-07-08T01:29:01;18.60;99.90
8475;DHT22;4274;52.012;8.448;2023-07-08T01:31:28;18.60;99.90
8475;DHT22;4274;52.012;8.448;2023-07-08T01:33:53;18.60;99.90
8475;DHT22;4274;52.012;8.448;2023-07-08T01:36:19;18.60;99.70
8475;DHT22;4274;52.012;8.448;2023-07-08T01:38:46;18.70;99.90
8475;DHT22;4274;52.012;8.448;2023-07-08T01:41:13;18.70;99.90
8475;DHT22;4274;52.012;8.448;2023-07-08T01:43:39;18.70;99.70
8475;DHT22;4274;52.012;8.448;2023-07-08T01:46:13;18.80;99.90
8475;DHT22;4274;52.012;8.448;2023-07-08T01:48:50;18.70;99.90
8475;DHT22;4274;52.012;8.448;2023-07-08T01:51:17;18.70;99.80
8475;DHT22;4274;52.012;8.448;2023-07-08T01:53:43;18.80;99.60
8475;DHT22;4274;52.012;8.448;2023-07-08T01:56:12;18.80;99.60
8475;DHT22;4274;52.012;8.448;2023-07-08T01:58:37;18.80;99.60
8475;DHT22;4274;52.012;8.448;2023-07-08T02:01:03;18.80;99.90
8475;DHT22;4274;52.012;8.448;2023-07-08T02:03:29;18.70;99.50
8475;DHT22;4274;52.012;8.448;2023-07-08T02:05:55;18.80;99.50
8475;DHT22;4274;52.012;8.448;2023-07-08T02:08:21;18.80;99.10
8475;DHT22;4274;52.012;8.448;2023-07-08T02:10:51;18.90;98.60
8475;DHT22;4274;52.012;8.448;2023-07-08T02:13:17;19.10;98.50
8475;DHT22;4274;52.012;8.448;2023-07-08T02:15:43;19.10;98.10
8475;DHT22;4274;52.012;8.448;2023-07-08T02:18:08;19.20;97.60
8475;DHT22;4274;52.012;8.448;2023-07-08T02:20:34;19.30;97.60
8475;DHT22;4274;52.012;8.448;2023-07-08T02:23:00;19.40;97.10
8475;DHT22;4274;52.012;8.448;2023-07-08T02:25:25;19.40;97.20
8475;DHT22;4274;52.012;8.448;2023-07-08T02:27:52;19.50;97.10
8475;DHT22;4274;52.012;8.448;2023-07-08T02:30:17;19.50;97.10
8475;DHT22;4274;52.012;8.448;2023-07-08T02:32:43;19.50;97.30
8475;DHT22;4274;52.012;8.448;2023-07-08T02:35:14;19.50;97.40
8475;DHT22;4274;52.012;8.448;2023-07-08T02:37:39;19.40;97.50
8475;DHT22;4274;52.012;8.448;2023-07-08T02:40:05;19.40;97.20
8475;DHT22;4274;52.012;8.448;2023-07-08T02:42:31;19.40;97.30
8475;DHT22;4274;52.012;8.448;2023-07-08T02:44:57;19.30;97.00
8475;DHT22;4274;52.012;8.448;2023-07-08T02:47:22;19.40;96.50
8475;DHT22;4274;52.012;8.448;2023-07-08T02:49:48;19.50;96.40
8475;DHT22;4274;52.012;8.448;2023-07-08T02:52:14;19.50;96.10
8475;DHT22;4274;52.012;8.448;2023-07-08T02:54:40;19.60;95.80
8475;DHT22;4274;52.012;8.448;2023-07-08T02:57:05;19.70;95.30
8475;DHT22;4274;52.012;8.448;2023-07-08T02:59:31;19.80;95.00
8475;DHT22;4274;52.012;8.448;2023-07-08T03:01:56;19.80;94.80
8475;DHT22;4274;52.012;8.448;2023-07-08T03:04:22;19.90;94.40
8475;DHT22;4274;52.012;8.448;2023-07-08T03:06:51;20.00;94.20
8475;DHT22;4274;52.012;8.448;2023-07-08T03:09:16;20.10;93.90
8475;DHT22;4274;52.012;8.448;2023-07-08T03:11:42;20.20;93.40
8475;DHT22;4274;52.012;8.448;2023-07-08T03:14:08;20.30;93.20
8475;DHT22;4274;52.012;8.448;2023-07-08T03:16:34;20.40;93.40
8475;DHT22;4274;52.012;8.448;2023-07-08T03:19:00;20.40;93.40
8475;DHT22;4274;52.012;8.448;2023-07-08T03:21:25;20.40;93.40
8475;DHT22;4274;52.012;8.448;2023-07-08T03:23:52;20.40;93.00
8475;DHT22;4274;52.012;8.448;2023-07-08T03:26:25;20.40;92.70
8475;DHT22;4274;52.012;8.448;2023-07-08T03:28:51;20.50;92.20
8475;DHT22;4274;52.012;8.448;2023-07-08T03:31:17;20.60;92.00
8475;DHT22;4274;52.012;8.448;2023-07-08T03:33:43;20.70;92.20
8475;DHT22;4274;52.012;8.448;2023-07-08T03:36:15;20.70;91.90
8475;DHT22;4274;52.012;8.448;2023-07-08T03:38:52;20.70;91.90
8475;DHT22;4274;52.012;8.448;2023-07-08T03:41:18;20.70;91.60
8475;DHT22;4274;52.012;8.448;2023-07-08T03:43:44;20.70;91.00
8475;DHT22;4274;52.012;8.448;2023-07-08T03:46:11;21.00;90.60
8475;DHT22;4274;52.012;8.448;2023-07-08T03:48:37;21.20;90.20
8475;DHT22;4274;52.012;8.448;2023-07-08T03:51:04;21.40;89.50
8475;DHT22;4274;52.012;8.448;2023-07-08T03:53:29;21.40;88.90
8475;DHT22;4274;52.012;8.448;2023-07-08T03:55:55;21.60;88.90
8475;DHT22;4274;52.012;8.448;2023-07-08T03:58:20;21.70;88.20
8475;DHT22;4274;52.012;8.448;2023-07-08T04:00:46;21.70;87.90
8475;DHT22;4274;52.012;8.448;2023-07-08T04:03:12;21.90;87.50
8475;DHT22;4274;52.012;8.448;2023-07-08T04:05:37;21.90;86.80
8475;DHT22;4274;52.012;8.448;2023-07-08T04:08:03;22.00;86.90
8475;DHT22;4274;52.012;8.448;2023-07-08T04:10:29;22.00;87.20
8475;DHT22;4274;52.012;8.448;2023-07-08T04:12:54;22.10;86.40
8475;DHT22;4274;52.012;8.448;2023-07-08T04:15:20;22.10;86.70
8475;DHT22;4274;52.012;8.448;2023-07-08T04:17:50;22.10;87.10
8475;DHT22;4274;52.012;8.448;2023-07-08T04:20:18;22.10;86.60
8475;DHT22;4274;52.012;8.448;2023-07-08T04:22:44;22.10;86.30
8475;DHT22;4274;52.012;8.448;2023-07-08T04:25:11;22.10;86.70
8475;DHT22;4274;52.012;8.448;2023-07-08T04:27:38;22.20;86.50
8475;DHT22;4274;52.012;8.448;2023-07-08T04:30:04;22.20;86.20
8475;DHT22;4274;52.012;8.448;2023-07-08T04:32:30;22.30;86.60
8475;DHT22;4274;52.012;8.448;2023-07-08T04:34:56;22.30;86.60
8475;DHT22;4274;52.012;8.448;2023-07-08T04:37:21;22.30;86.60
8475;DHT22;4274;52.012;8.448;2023-07-08T04:39:47;22.30;86.30
8475;DHT22;4274;52.012;8.448;2023-07-08T04:42:14;22.30;86.60
8475;DHT22;4274;52.012;8.448;2023-07-08T04:44:41;22.40;86.80
8475;DHT22;4274;52.012;8.448;2023-07-08T04:47:07;22.40;86.90
8475;DHT22;4274;52.012;8.448;2023-07-08T04:49:35;22.40;87.30
8475;DHT22;4274;52.012;8.448;2023-07-08T04:52:01;22.40;86.80
8475;DHT22;4274;52.012;8.448;2023-07-08T04:54:28;22.40;86.80
8475;DHT22;4274;52.012;8.448;2023-07-08T04:56:53;22.40;86.40
8475;DHT22;4274;52.012;8.448;2023-07-08T04:59:22;22.50;86.40
8475;DHT22;4274;52.012;8.448;2023-07-08T05:01:49;22.60;87.30
8475;DHT22;4274;52.012;8.448;2023-07-08T05:04:17;22.60;87.00
8475;DHT22;4274;52.012;8.448;2023-07-08T05:06:43;22.60;87.60
8475;DHT22;4274;52.012;8.448;2023-07-08T05:09:09;22.60;87.20
8475;DHT22;4274;52.012;8.448;2023-07-08T05:11:35;22.70;87.80
8475;DHT22;4274;52.012;8.448;2023-07-08T05:14:02;22.70;87.30
8475;DHT22;4274;52.012;8.448;2023-07-08T05:16:28;22.70;86.90
8475;DHT22;4274;52.012;8.448;2023-07-08T05:18:53;22.80;87.30
8475;DHT22;4274;52.012;8.448;2023-07-08T05:21:20;22.80;87.60
8475;DHT22;4274;52.012;8.448;2023-07-08T05:23:46;22.90;87.20
8475;DHT22;4274;52.012;8.448;2023-07-08T05:26:14;23.00;87.60
8475;DHT22;4274;52.012;8.448;2023-07-08T05:28:40;23.10;87.50
8475;DHT22;4274;52.012;8.448;2023-07-08T05:31:05;23.10;88.20
8475;DHT22;4274;52.012;8.448;2023-07-08T05:33:31;23.20;88.10
8475;DHT22;4274;52.012;8.448;2023-07-08T05:35:57;23.30;88.60
8475;DHT22;4274;52.012;8.448;2023-07-08T05:38:23;23.30;88.70
8475;DHT22;4274;52.012;8.448;2023-07-08T05:40:50;23.40;88.20
8475;DHT22;4274;52.012;8.448;2023-07-08T05:43:19;23.50;88.40
8475;DHT22;4274;52.012;8.448;2023-07-08T05:45:44;23.50;88.60
8475;DHT22;4274;52.012;8.448;2023-07-08T05:48:10;23.60;88.40
8475;DHT22;4274;52.012;8.448;2023-07-08T05:50:36;23.60;88.50
8475;DHT22;4274;52.012;8.448;2023-07-08T05:53:01;23.60;88.90
8475;DHT22;4274;52.012;8.448;2023-07-08T05:55:27;23.70;88.80
8475;DHT22;4274;52.012;8.448;2023-07-08T05:57:53;23.70;90.00
8475;DHT22;4274;52.012;8.448;2023-07-08T06:00:18;23.60;90.20
8475;DHT22;4274;52.012;8.448;2023-07-08T06:02:44;23.60;91.00
8475;DHT22;4274;52.012;8.448;2023-07-08T06:05:09;23.60;91.10
8475;DHT22;4274;52.012;8.448;2023-07-08T06:07:35;23.60;91.30
8475;DHT22;4274;52.012;8.448;2023-07-08T06:10:01;23.70;90.30
8475;DHT22;4274;52.012;8.448;2023-07-08T06:12:27;23.80;90.70
8475;DHT22;4274;52.012;8.448;2023-07-08T06:14:52;23.90;90.60
8475;DHT22;4274;52.012;8.448;2023-07-08T06:17:18;24.00;90.20
8475;DHT22;4274;52.012;8.448;2023-07-08T06:19:44;24.20;90.10
8475;DHT22;4274;52.012;8.448;2023-07-08T06:22:10;24.30;89.40
8475;DHT22;4274;52.012;8.448;2023-07-08T06:24:35;24.40;90.50
8475;DHT22;4274;52.012;8.448;2023-07-08T06:27:01;24.50;90.80
8475;DHT22;4274;52.012;8.448;2023-07-08T06:29:27;24.70;91.20
8475;DHT22;4274;52.012;8.448;2023-07-08T06:31:52;24.80;91.90
8475;DHT22;4274;52.012;8.448;2023-07-08T06:34:19;24.90;92.00
8475;DHT22;4274;52.012;8.448;2023-07-08T06:36:45;24.90;92.00
8475;DHT22;4274;52.012;8.448;2023-07-08T06:39:10;24.80;92.30
8475;DHT22;4274;52.012;8.448;2023-07-08T06:41:37;24.90;92.00
8475;DHT22;4274;52.012;8.448;2023-07-08T06:44:03;24.90;92.50
8475;DHT22;4274;52.012;8.448;2023-07-08T06:46:29;24.90;92.80
8475;DHT22;4274;52.012;8.448;2023-07-08T06:48:54;24.90;92.50
8475;DHT22;4274;52.012;8.448;2023-07-08T06:51:20;24.90;93.00
8475;DHT22;4274;52.012;8.448;2023-07-08T06:53:46;24.90;92.40
8475;DHT22;4274;52.012;8.448;2023-07-08T06:56:11;25.00;92.40
8475;DHT22;4274;52.012;8.448;2023-07-08T06:58:37;25.20;92.10
8475;DHT22;4274;52.012;8.448;2023-07-08T07:01:02;25.30;92.50
8475;DHT22;4274;52.012;8.448;2023-07-08T07:03:28;25.30;93.00
8475;DHT22;4274;52.012;8.448;2023-07-08T07:05:53;25.40;93.40
8475;DHT22;4274;52.012;8.448;2023-07-08T07:08:19;25.40;93.50
8475;DHT22;4274;52.012;8.448;2023-07-08T07:10:44;25.40;94.00
8475;DHT22;4274;52.012;8.448;2023-07-08T07:13:10;25.40;93.50
8475;DHT22;4274;52.012;8.448;2023-07-08T07:15:36;25.40;93.70
8475;DHT22;4274;52.012;8.448;2023-07-08T07:18:01;25.30;93.80
8475;DHT22;4274;52.012;8.448;2023-07-08T07:20:27;25.20;93.70
8475;DHT22;4274;52.012;8.448;2023-07-08T07:22:53;25.30;94.20
8475;DHT22;4274;52.012;8.448;2023-07-08T07:25:19;25.40;93.80
8475;DHT22;4274;52.012;8.448;2023-07-08T07:27:45;25.50;93.90
8475;DHT22;4274;52.012;8.448;2023-07-08T07:30:11;25.60;93.90
8475;DHT22;4274;52.012;8.448;2023-07-08T07:32:41;25.70;93.80
8475;DHT22;4274;52.012;8.448;2023-07-08T07:35:08;25.70;94.30
8475;DHT22;4274;52.012;8.448;2023-07-08T07:37:34;25.70;93.30
8475;DHT22;4274;52.012;8.448;2023-07-08T07:39:59;25.70;93.50
8475;DHT22;4274;52.012;8.448;2023-07-08T07:42:27;25.80;93.20
8475;DHT22;4274;52.012;8.448;2023-07-08T07:44:53;25.90;93.70
8475;DHT22;4274;52.012;8.448;2023-07-08T07:47:18;26.00;93.80
8475;DHT22;4274;52.012;8.448;2023-07-08T07:49:44;26.00;93.30
8475;DHT22;4274;52.012;8.448;2023-07-08T07:52:10;26.00;93.50
8475;DHT22;4274;52.012;8.448;2023-07-08T07:54:37;26.10;93.70
8475;DHT22;4274;52.012;8.448;2023-07-08T07:57:03;26.20;93.60
8475;DHT22;4274;52.012;8.448;2023-07-08T07:59:29;26.30;93.80
8475;DHT22;4274;52.012;8.448;2023-07-08T08:01:55;26.30;93.60
8475;DHT22;4274;52.012;8.448;2023-07-08T08:04:20;26.40;94.10
8475;DHT22;4274;52.012;8.448;2023-07-08T08:06:47;26.50;93.20
8475;DHT22;4274;52.012;8.448;2023-07-08T08:09:13;26.70;91.60
8475;DHT22;4274;52.012;8.448;2023-07-08T08:11:38;26.90;91.30
8475;DHT22;4274;52.012;8.448;2023-07-08T08:14:04;27.10;90.90
8475;DHT22;4274;52.012;8.448;2023-07-08T08:16:30;27.30;91.00
8475;DHT22;4274;52.012;8.448;2023-07-08T08:18:56;27.50;90.80
8475;DHT22;4274;52.012;8.448;2023-07-08T08:21:21;27.60;91.00
8475;DHT22;4274;52.012;8.448;2023-07-08T08:23:47;27.70;91.30
8475;DHT22;4274;52.012;8.448;2023-07-08T08:26:13;27.90;89.90
8475;DHT22;4274;52.012;8.448;2023-07-08T08:28:39;28.10;89.00
8475;DHT22;4274;52.012;8.448;2023-07-08T08:31:04;28.20;88.60
8475;DHT22;4274;52.012;8.448;2023-07-08T08:33:30;28.40;88.40
8475;DHT22;4274;52.012;8.448;2023-07-08T08:35:55;28.50;87.80
8475;DHT22;4274;52.012;8.448;2023-07-08T08:38:21;28.60;87.20
8475;DHT22;4274;52.012;8.448;2023-07-08T08:40:55;28.60;89.10
8475;DHT22;4274;52.012;8.448;2023-07-08T08:43:25;28.80;86.60
8475;DHT22;4274;52.012;8.448;2023-07-08T08:48:49;29.00;86.00
8475;DHT22;4274;52.012;8.448;2023-07-08T08:51:17;29.10;85.70
8475;DHT22;4274;52.012;8.448;2023-07-08T08:53:43;29.30;86.70
8475;DHT22;4274;52.012;8.448;2023-07-08T08:56:28;29.40;85.40
8475;DHT22;4274;52.012;8.448;2023-07-08T09:01:28;29.60;85.60
8475;DHT22;4274;52.012;8.448;2023-07-08T09:04:16;29.60;85.80
8475;DHT22;4274;52.012;8.448;2023-07-08T09:06:42;29.80;86.80
8475;DHT22;4274;52.012;8.448;2023-07-08T09:09:32;30.10;80.80
8475;DHT22;4274;52.012;8.448;2023-07-08T09:12:09;30.20;82.10
8475;DHT22;4274;52.012;8.448;2023-07-08T09:14:37;30.40;80.00
8475;DHT22;4274;52.012;8.448;2023-07-08T09:17:32;30.40;80.00
8475;DHT22;4274;52.012;8.448;2023-07-08T09:20:14;30.40;79.60
8475;DHT22;4274;52.012;8.448;2023-07-08T09:25:34;30.80;81.40
8475;DHT22;4274;52.012;8.448;2023-07-08T09:28:01;30.90;81.00
8475;DHT22;4274;52.012;8.448;2023-07-08T09:30:27;31.00;81.40
8475;DHT22;4274;52.012;8.448;2023-07-08T09:32:56;31.10;84.00
8475;DHT22;4274;52.012;8.448;2023-07-08T09:35:25;31.40;77.90
8475;DHT22;4274;52.012;8.448;2023-07-08T09:37:51;31.60;74.10
8475;DHT22;4274;52.012;8.448;2023-07-08T09:42:58;32.00;74.40
8475;DHT22;4274;52.012;8.448;2023-07-08T09:45:26;32.20;71.90
8475;DHT22;4274;52.012;8.448;2023-07-08T09:48:01;32.30;70.50
8475;DHT22;4274;52.012;8.448;2023-07-08T09:50:28;32.30;69.90
8475;DHT22;4274;52.012;8.448;2023-07-08T09:52:56;32.60;71.70
8475;DHT22;4274;52.012;8.448;2023-07-08T09:55:26;33.00;70.40
8475;DHT22;4274;52.012;8.448;2023-07-08T09:57:54;33.40;68.20
8475;DHT22;4274;52.012;8.448;2023-07-08T10:00:50;33.60;65.30
8475;DHT22;4274;52.012;8.448;2023-07-08T10:03:27;33.80;66.10
8475;DHT22;4274;52.012;8.448;2023-07-08T10:05:54;33.80;65.00
8475;DHT22;4274;52.012;8.448;2023-07-08T10:08:24;34.10;68.90
8475;DHT22;4274;52.012;8.448;2023-07-08T10:11:02;34.50;67.60
8475;DHT22;4274;52.012;8.448;2023-07-08T10:16:26;34.50;64.30
8475;DHT22;4274;52.012;8.448;2023-07-08T10:18:52;34.50;61.30
8475;DHT22;4274;52.012;8.448;2023-07-08T10:21:31;34.50;62.70
8475;DHT22;4274;52.012;8.448;2023-07-08T10:26:43;35.00;63.00
8475;DHT22;4274;52.012;8.448;2023-07-08T10:29:35;35.40;66.70
8475;DHT22;4274;52.012;8.448;2023-07-08T10:32:37;35.90;62.80
8475;DHT22;4274;52.012;8.448;2023-07-08T10:40:39;36.10;63.70
8475;DHT22;4274;52.012;8.448;2023-07-08T10:43:30;36.30;59.50
8475;DHT22;4274;52.012;8.448;2023-07-08T10:51:54;36.10;63.70
8475;DHT22;4274;52.012;8.448;2023-07-08T10:55:06;36.50;62.30
8475;DHT22;4274;52.012;8.448;2023-07-08T11:14:14;37.10;60.20
8475;DHT22;4274;52.012;8.448;2023-07-08T11:19:23;37.50;57.80
8475;DHT22;4274;52.012;8.448;2023-07-08T11:21:53;37.50;58.70
8475;DHT22;4274;52.012;8.448;2023-07-08T11:24:31;37.50;58.50
8475;DHT22;4274;52.012;8.448;2023-07-08T11:27:26;37.70;59.00
8475;DHT22;4274;52.012;8.448;2023-07-08T11:30:20;37.90;57.90
8475;DHT22;4274;52.012;8.448;2023-07-08T11:32:49;38.10;56.40
8475;DHT22;4274;52.012;8.448;2023-07-08T11:38:00;38.10;56.70
8475;DHT22;4274;52.012;8.448;2023-07-08T11:40:26;38.10;57.40
8475;DHT22;4274;52.012;8.448;2023-07-08T11:43:03;38.20;55.10
8475;DHT22;4274;52.012;8.448;2023-07-08T11:45:38;38.20;54.50
8475;DHT22;4274;52.012;8.448;2023-07-08T11:48:18;37.90;54.60
8475;DHT22;4274;52.012;8.448;2023-07-08T11:50:47;37.60;55.00
8475;DHT22;4274;52.012;8.448;2023-07-08T11:53:36;37.80;54.60
8475;DHT22;4274;52.012;8.448;2023-07-08T11:58:49;37.80;56.90
8475;DHT22;4274;52.012;8.448;2023-07-08T12:01:23;38.20;55.70
8475;DHT22;4274;52.012;8.448;2023-07-08T12:04:00;38.40;56.50
8475;DHT22;4274;52.012;8.448;2023-07-08T12:09:00;39.00;54.90
8475;DHT22;4274;52.012;8.448;2023-07-08T12:11:42;38.80;54.50
8475;DHT22;4274;52.012;8.448;2023-07-08T12:14:08;38.50;56.00
8475;DHT22;4274;52.012;8.448;2023-07-08T12:16:34;38.30;54.80
8475;DHT22;4274;52.012;8.448;2023-07-08T12:19:01;38.30;55.20
8475;DHT22;4274;52.012;8.448;2023-07-08T12:21:30;38.50;55.30
8475;DHT22;4274;52.012;8.448;2023-07-08T12:24:04;38.80;54.70
8475;DHT22;4274;52.012;8.448;2023-07-08T12:26:32;38.80;54.30
8475;DHT22;4274;52.012;8.448;2023-07-08T12:28:58;38.80;53.80
8475;DHT22;4274;52.012;8.448;2023-07-08T12:31:23;38.80;54.90
8475;DHT22;4274;52.012;8.448;2023-07-08T12:33:50;38.90;55.20
8475;DHT22;4274;52.012;8.448;2023-07-08T12:36:28;39.20;57.30
8475;DHT22;4274;52.012;8.448;2023-07-08T12:38:58;39.40;53.40
8475;DHT22;4274;52.012;8.448;2023-07-08T12:41:28;39.40;56.90
8475;DHT22;4274;52.012;8.448;2023-07-08T12:43:55;39.50;54.80
8475;DHT22;4274;52.012;8.448;2023-07-08T12:46:22;39.30;54.90
8475;DHT22;4274;52.012;8.448;2023-07-08T12:48:48;39.10;56.00
8475;DHT22;4274;52.012;8.448;2023-07-08T12:51:16;39.20;54.80
8475;DHT22;4274;52.012;8.448;2023-07-08T12:53:42;39.20;53.60
8475;DHT22;4274;52.012;8.448;2023-07-08T12:56:09;39.20;54.60
8475;DHT22;4274;52.012;8.448;2023-07-08T12:58:41;39.00;54.80
8475;DHT22;4274;52.012;8.448;2023-07-08T13:01:08;38.90;53.10
8475;DHT22;4274;52.012;8.448;2023-07-08T13:03:42;38.80;54.50
8475;DHT22;4274;52.012;8.448;2023-07-08T13:06:10;38.90;52.70
8475;DHT22;4274;52.012;8.448;2023-07-08T13:08:37;38.70;53.60
8475;DHT22;4274;52.012;8.448;2023-07-08T13:11:05;38.80;54.00
8475;DHT22;4274;52.012;8.448;2023-07-08T13:13:35;38.90;51.80
8475;DHT22;4274;52.012;8.448;2023-07-08T13:16:02;38.60;55.10
8475;DHT22;4274;52.012;8.448;2023-07-08T13:18:37;38.70;56.20
8475;DHT22;4274;52.012;8.448;2023-07-08T13:21:06;38.60;55.60
8475;DHT22;4274;52.012;8.448;2023-07-08T13:23:32;38.40;55.60
8475;DHT22;4274;52.012;8.448;2023-07-08T13:25:59;37.90;53.70
8475;DHT22;4274;52.012;8.448;2023-07-08T13:28:28;37.00;53.80
8475;DHT22;4274;52.012;8.448;2023-07-08T13:31:02;36.30;54.50
8475;DHT22;4274;52.012;8.448;2023-07-08T13:33:32;35.60;55.40
8475;DHT22;4274;52.012;8.448;2023-07-08T13:36:02;35.10;56.00
8475;DHT22;4274;52.012;8.448;2023-07-08T13:38:33;34.90;56.30
8475;DHT22;4274;52.012;8.448;2023-07-08T13:41:02;34.70;58.10
8475;DHT22;4274;52.012;8.448;2023-07-08T13:43:30;34.50;56.40
8475;DHT22;4274;52.012;8.448;2023-07-08T13:45:56;34.30;55.50
8475;DHT22;4274;52.012;8.448;2023-07-08T13:48:33;34.10;56.60
8475;DHT22;4274;52.012;8.448;2023-07-08T13:51:21;34.00;56.70
8475;DHT22;4274;52.012;8.448;2023-07-08T13:53:52;33.80;55.70
8475;DHT22;4274;52.012;8.448;2023-07-08T13:59:00;33.40;56.80
8475;DHT22;4274;52.012;8.448;2023-07-08T14:01:26;33.30;56.30
8475;DHT22;4274;52.012;8.448;2023-07-08T14:03:53;33.10;55.40
8475;DHT22;4274;52.012;8.448;2023-07-08T14:06:25;32.90;56.20
8475;DHT22;4274;52.012;8.448;2023-07-08T14:08:56;32.80;56.10
8475;DHT22;4274;52.012;8.448;2023-07-08T14:11:22;32.80;55.90
8475;DHT22;4274;52.012;8.448;2023-07-08T14:13:48;32.70;58.00
8475;DHT22;4274;52.012;8.448;2023-07-08T14:16:29;32.70;58.50
8475;DHT22;4274;52.012;8.448;2023-07-08T14:18:56;32.60;58.20
8475;DHT22;4274;52.012;8.448;2023-07-08T14:21:23;32.60;55.70
8475;DHT22;4274;52.012;8.448;2023-07-08T14:23:49;32.50;58.30
8475;DHT22;4274;52.012;8.448;2023-07-08T14:26:14;32.50;56.60
8475;DHT22;4274;52.012;8.448;2023-07-08T14:28:40;32.50;60.50
8475;DHT22;4274;52.012;8.448;2023-07-08T14:31:10;32.50;58.00
8475;DHT22;4274;52.012;8.448;2023-07-08T14:33:37;32.50;57.00
8475;DHT22;4274;52.012;8.448;2023-07-08T14:36:04;32.50;57.60
8475;DHT22;4274;52.012;8.448;2023-07-08T14:38:29;32.40;56.40
8475;DHT22;4274;52.012;8.448;2023-07-08T14:40:55;32.30;57.10
8475;DHT22;4274;52.012;8.448;2023-07-08T14:43:28;32.20;58.30
8475;DHT22;4274;52.012;8.448;2023-07-08T14:45:59;32.20;59.50
8475;DHT22;4274;52.012;8.448;2023-07-08T14:48:28;32.20;59.20
8475;DHT22;4274;52.012;8.448;2023-07-08T14:50:54;32.20;58.40
8475;DHT22;4274;52.012;8.448;2023-07-08T14:53:20;32.10;57.80
8475;DHT22;4274;52.012;8.448;2023-07-08T14:55:49;32.10;56.00
8475;DHT22;4274;52.012;8.448;2023-07-08T14:58:22;32.00;56.40
8475;DHT22;4274;52.012;8.448;2023-07-08T15:00:50;31.90;58.00
8475;DHT22;4274;52.012;8.448;2023-07-08T15:03:16;31.90;58.10
8475;DHT22;4274;52.012;8.448;2023-07-08T15:05:42;31.90;57.20
8475;DHT22;4274;52.012;8.448;2023-07-08T15:08:08;31.90;57.40
8475;DHT22;4274;52.012;8.448;2023-07-08T15:10:34;31.80;58.30
8475;DHT22;4274;52.012;8.448;2023-07-08T15:13:02;31.80;58.90
8475;DHT22;4274;52.012;8.448;2023-07-08T15:15:30;31.80;60.30
8475;DHT22;4274;52.012;8.448;2023-07-08T15:17:57;31.70;59.50
8475;DHT22;4274;52.012;8.448;2023-07-08T15:20:24;31.70;57.70
8475;DHT22;4274;52.012;8.448;2023-07-08T15:22:50;31.70;56.30
8475;DHT22;4274;52.012;8.448;2023-07-08T15:25:16;31.60;57.60
8475;DHT22;4274;52.012;8.448;2023-07-08T15:27:53;31.50;57.40
8475;DHT22;4274;52.012;8.448;2023-07-08T15:30:22;31.50;57.50
8475;DHT22;4274;52.012;8.448;2023-07-08T15:32:48;31.50;58.00
8475;DHT22;4274;52.012;8.448;2023-07-08T15:35:19;31.50;57.70
8475;DHT22;4274;52.012;8.448;2023-07-08T15:37:46;31.60;57.30
8475;DHT22;4274;52.012;8.448;2023-07-08T15:40:13;31.50;57.40
8475;DHT22;4274;52.012;8.448;2023-07-08T15:42:40;31.50;57.10
8475;DHT22;4274;52.012;8.448;2023-07-08T15:47:37;31.40;59.30
8475;DHT22;4274;52.012;8.448;2023-07-08T15:50:12;31.40;59.40
8475;DHT22;4274;52.012;8.448;2023-07-08T15:52:39;31.40;60.40
8475;DHT22;4274;52.012;8.448;2023-07-08T15:55:06;31.40;59.90
8475;DHT22;4274;52.012;8.448;2023-07-08T15:57:33;31.40;59.20
8475;DHT22;4274;52.012;8.448;2023-07-08T15:59:59;31.40;60.00
8475;DHT22;4274;52.012;8.448;2023-07-08T16:02:27;31.40;59.60
8475;DHT22;4274;52.012;8.448;2023-07-08T16:04:54;31.40;60.40
8475;DHT22;4274;52.012;8.448;2023-07-08T16:07:19;31.30;58.20
8475;DHT22;4274;52.012;8.448;2023-07-08T16:09:45;31.30;59.10
8475;DHT22;4274;52.012;8.448;2023-07-08T16:12:21;31.20;58.60
8475;DHT22;4274;52.012;8.448;2023-07-08T16:14:47;31.20;59.10
8475;DHT22;4274;52.012;8.448;2023-07-08T16:17:12;31.20;59.90
8475;DHT22;4274;52.012;8.448;2023-07-08T16:19:38;31.20;60.00
8475;DHT22;4274;52.012;8.448;2023-07-08T16:22:04;31.10;59.50
8475;DHT22;4274;52.012;8.448;2023-07-08T16:24:31;31.10;59.40
8475;DHT22;4274;52.012;8.448;2023-07-08T16:26:57;31.10;59.40
8475;DHT22;4274;52.012;8.448;2023-07-08T16:29:26;31.10;60.20
8475;DHT22;4274;52.012;8.448;2023-07-08T16:31:52;31.10;59.50
8475;DHT22;4274;52.012;8.448;2023-07-08T16:34:18;31.00;60.60
8475;DHT22;4274;52.012;8.448;2023-07-08T16:36:43;31.00;60.70
8475;DHT22;4274;52.012;8.448;2023-07-08T16:39:09;31.00;60.30
8475;DHT22;4274;52.012;8.448;2023-07-08T16:41:35;31.00;60.90
8475;DHT22;4274;52.012;8.448;2023-07-08T16:44:23;31.00;60.90
8475;DHT22;4274;52.012;8.448;2023-07-08T16:46:48;31.00;60.50
8475;DHT22;4274;52.012;8.448;2023-07-08T16:49:14;31.00;61.10
8475;DHT22;4274;52.012;8.448;2023-07-08T16:51:40;31.00;61.50
8475;DHT22;4274;52.012;8.448;2023-07-08T16:54:14;30.90;60.10
8475;DHT22;4274;52.012;8.448;2023-07-08T16:56:42;30.90;61.10
8475;DHT22;4274;52.012;8.448;2023-07-08T16:59:08;30.90;61.40
8475;DHT22;4274;52.012;8.448;2023-07-08T17:01:34;30.90;62.60
8475;DHT22;4274;52.012;8.448;2023-07-08T17:04:00;30.80;63.10
8475;DHT22;4274;52.012;8.448;2023-07-08T17:06:26;30.80;63.60
8475;DHT22;4274;52.012;8.448;2023-07-08T17:08:51;30.80;63.90
8475;DHT22;4274;52.012;8.448;2023-07-08T17:11:17;30.80;64.10
8475;DHT22;4274;52.012;8.448;2023-07-08T17:13:43;30.70;64.50
8475;DHT22;4274;52.012;8.448;2023-07-08T17:16:16;30.70;64.40
8475;DHT22;4274;52.012;8.448;2023-07-08T17:18:43;30.70;64.30
8475;DHT22;4274;52.012;8.448;2023-07-08T17:21:14;30.70;65.40